createdAt,value
2023-03-08T00:00:37.477Z,3.00
2023-03-08T00:03:05.435Z,3.00
2023-03-08T00:05:34.722Z,3.00
2023-03-08T00:08:03.252Z,3.00
2023-03-08T00:10:31.227Z,2.90
2023-03-08T00:12:59.252Z,2.90
2023-03-08T00:15:27.254Z,2.90
2023-03-08T00:17:55.210Z,2.90
2023-03-08T00:20:23.144Z,2.90
2023-03-08T00:22:52.451Z,2.80
2023-03-08T00:25:20.509Z,2.90
2023-03-08T00:27:48.648Z,2.80
2023-03-08T00:30:17.395Z,2.80
2023-03-08T00:32:45.488Z,2.90
2023-03-08T00:35:13.537Z,2.70
2023-03-08T00:37:41.570Z,2.80
2023-03-08T00:40:12.286Z,2.80
2023-03-08T00:42:40.616Z,2.80
2023-03-08T00:45:10.001Z,2.80
2023-03-08T00:47:38.385Z,2.80
2023-03-08T00:50:07.619Z,2.80
2023-03-08T00:52:35.561Z,2.80
2023-03-08T00:55:03.755Z,2.80
2023-03-08T00:57:33.273Z,2.80
2023-03-08T01:00:01.309Z,2.70
2023-03-08T01:02:29.251Z,2.80
2023-03-08T01:04:58.153Z,2.70
2023-03-08T01:07:28.460Z,2.70
2023-03-08T01:09:56.804Z,2.80
2023-03-08T01:12:25.433Z,2.70
2023-03-08T01:14:54.865Z,2.80
2023-03-08T01:17:22.795Z,2.80
2023-03-08T01:19:50.761Z,2.70
2023-03-08T01:22:18.728Z,2.60
2023-03-08T01:24:47.182Z,2.60
2023-03-08T01:27:16.183Z,2.70
2023-03-08T01:29:44.294Z,2.70
2023-03-08T01:32:14.018Z,2.60
2023-03-08T01:34:42.024Z,2.60
2023-03-08T01:37:09.994Z,2.60
2023-03-08T01:39:37.958Z,2.70
2023-03-08T01:42:07.802Z,2.70
2023-03-08T01:44:51.829Z,2.70
2023-03-08T01:47:23.408Z,2.70
2023-03-08T01:49:53.490Z,2.70
2023-03-08T01:52:24.458Z,2.70
2023-03-08T01:54:55.503Z,2.60
2023-03-08T01:57:26.457Z,2.70
2023-03-08T01:59:58.444Z,2.70
2023-03-08T02:02:38.386Z,2.70
2023-03-08T02:05:07.014Z,2.60
2023-03-08T02:07:34.956Z,2.50
2023-03-08T02:10:03.272Z,2.50
2023-03-08T02:12:31.378Z,2.50
2023-03-08T02:14:59.959Z,2.50
2023-03-08T02:17:30.426Z,2.50
2023-03-08T02:20:03.886Z,2.60
2023-03-08T02:22:31.822Z,2.60
2023-03-08T02:25:01.130Z,2.50
2023-03-08T02:27:30.070Z,2.50
2023-03-08T02:29:58.012Z,2.50
2023-03-08T02:32:25.976Z,2.50
2023-03-08T02:34:53.945Z,2.50
2023-03-08T02:37:21.879Z,2.50
2023-03-08T02:39:49.856Z,2.40
2023-03-08T02:42:19.141Z,2.40
2023-03-08T02:44:47.092Z,2.50
2023-03-08T02:47:15.102Z,2.40
2023-03-08T02:49:43.091Z,2.40
2023-03-08T02:52:11.094Z,2.50
2023-03-08T02:54:39.064Z,2.40
2023-03-08T02:57:07.088Z,2.50
2023-03-08T02:59:36.410Z,2.40
2023-03-08T03:02:04.559Z,2.50
2023-03-08T03:04:33.203Z,2.40
2023-03-08T03:07:02.038Z,2.50
2023-03-08T03:09:30.465Z,2.50
2023-03-08T03:11:58.490Z,2.50
2023-03-08T03:14:28.749Z,2.50
2023-03-08T03:16:58.169Z,2.40
2023-03-08T03:19:26.140Z,2.50
2023-03-08T03:21:54.061Z,2.30
2023-03-08T03:24:22.023Z,2.30
2023-03-08T03:26:51.446Z,2.40
2023-03-08T03:29:19.682Z,2.40
2023-03-08T03:31:48.644Z,2.30
2023-03-08T03:34:17.995Z,2.30
2023-03-08T03:36:45.944Z,2.20
2023-03-08T03:39:14.018Z,2.20
2023-03-08T03:41:41.988Z,2.20
2023-03-08T03:44:09.980Z,2.30
2023-03-08T03:46:38.080Z,2.20
2023-03-08T03:49:06.116Z,2.20
2023-03-08T03:51:35.517Z,2.30
2023-03-08T03:54:03.467Z,2.30
2023-03-08T03:56:31.438Z,2.20
2023-03-08T03:58:59.403Z,2.20
2023-03-08T04:01:29.247Z,2.20
2023-03-08T04:03:57.852Z,2.10
2023-03-08T04:06:27.735Z,2.10
2023-03-08T04:08:59.591Z,2.10
2023-03-08T04:11:29.882Z,2.10
2023-03-08T04:13:58.679Z,2.10
2023-03-08T04:16:29.508Z,2.20
2023-03-08T04:18:59.368Z,2.10
2023-03-08T04:21:27.638Z,2.20
2023-03-08T04:23:59.519Z,2.10
2023-03-08T04:26:28.821Z,2.10
2023-03-08T04:28:56.829Z,2.10
2023-03-08T04:31:26.924Z,2.10
2023-03-08T04:33:55.204Z,2.20
2023-03-08T04:36:23.787Z,2.20
2023-03-08T04:38:52.610Z,2.20
2023-03-08T04:41:22.055Z,2.20
2023-03-08T04:43:51.528Z,2.20
2023-03-08T04:46:22.140Z,2.30
2023-03-08T04:48:52.854Z,2.30
2023-03-08T04:51:21.322Z,2.20
2023-03-08T04:53:49.280Z,2.20
2023-03-08T04:56:17.781Z,2.20
2023-03-08T04:58:47.704Z,2.30
2023-03-08T05:01:17.285Z,2.20
2023-03-08T05:03:46.290Z,2.20
2023-03-08T05:06:15.118Z,2.30
2023-03-08T05:08:43.154Z,2.20
2023-03-08T05:11:12.284Z,2.10
2023-03-08T05:13:40.700Z,2.20
2023-03-08T05:16:10.134Z,2.10
2023-03-08T05:18:38.151Z,2.10
2023-03-08T05:21:08.594Z,2.10
2023-03-08T05:23:36.581Z,2.10
2023-03-08T05:26:06.461Z,2.20
2023-03-08T05:28:37.059Z,2.10
2023-03-08T05:31:06.389Z,2.10
2023-03-08T05:33:36.556Z,2.10
2023-03-08T05:36:05.594Z,2.00
2023-03-08T05:38:34.555Z,1.90
2023-03-08T05:41:03.472Z,1.90
2023-03-08T05:43:31.599Z,1.90
2023-03-08T05:46:02.388Z,2.00
2023-03-08T05:48:30.969Z,2.00
2023-03-08T05:51:00.373Z,2.00
2023-03-08T05:53:28.330Z,2.00
2023-03-08T05:55:56.366Z,2.00
2023-03-08T05:58:24.302Z,2.00
2023-03-08T06:00:52.267Z,2.10
2023-03-08T06:03:20.245Z,2.00
2023-03-08T06:05:48.197Z,2.10
2023-03-08T06:08:17.482Z,2.10
2023-03-08T06:10:45.451Z,2.00
2023-03-08T06:13:13.375Z,1.90
2023-03-08T06:15:41.342Z,1.90
2023-03-08T06:18:09.365Z,1.90
2023-03-08T06:20:37.376Z,1.80
2023-03-08T06:23:05.316Z,1.90
2023-03-08T06:25:34.630Z,1.80
2023-03-08T06:28:02.572Z,1.90
2023-03-08T06:30:30.592Z,1.90
2023-03-08T06:32:58.544Z,2.00
2023-03-08T06:35:26.807Z,2.00
2023-03-08T06:37:54.771Z,2.10
2023-03-08T06:40:22.861Z,2.00
2023-03-08T06:42:52.214Z,2.00
2023-03-08T06:45:20.176Z,2.10
2023-03-08T06:47:48.128Z,2.10
2023-03-08T06:50:16.319Z,2.10
2023-03-08T06:52:44.256Z,2.10
2023-03-08T06:55:12.697Z,2.10
2023-03-08T06:57:40.621Z,2.10
2023-03-08T07:00:13.386Z,2.10
2023-03-08T07:02:41.362Z,2.10
2023-03-08T07:05:10.172Z,2.10
2023-03-08T07:07:39.912Z,2.20
2023-03-08T07:10:10.961Z,2.20
2023-03-08T07:12:40.303Z,2.30
2023-03-08T07:15:10.936Z,2.30
2023-03-08T07:17:40.166Z,2.40
2023-03-08T07:20:09.835Z,2.40
2023-03-08T07:22:38.097Z,2.40
2023-03-08T07:25:06.641Z,2.50
2023-03-08T07:27:34.694Z,2.50
2023-03-08T07:30:02.659Z,2.60
2023-03-08T07:32:32.019Z,2.60
2023-03-08T07:35:00.122Z,2.60
2023-03-08T07:37:28.216Z,2.60
2023-03-08T07:39:56.161Z,2.60
2023-03-08T07:42:24.288Z,2.60
2023-03-08T07:44:52.236Z,2.70
2023-03-08T07:47:20.312Z,2.70
2023-03-08T07:49:49.671Z,2.70
2023-03-08T07:52:17.749Z,2.70
2023-03-08T07:54:45.787Z,2.70
2023-03-08T07:57:15.222Z,2.60
2023-03-08T07:59:43.396Z,2.50
2023-03-08T08:02:13.846Z,2.60
2023-03-08T08:04:42.275Z,2.70
2023-03-08T08:07:15.715Z,2.80
2023-03-08T08:09:43.792Z,2.80
2023-03-08T08:12:12.073Z,2.80
2023-03-08T08:14:40.176Z,2.80
2023-03-08T08:17:08.151Z,2.90
2023-03-08T08:19:36.112Z,3.00
2023-03-08T08:22:04.264Z,3.00
2023-03-08T08:24:33.658Z,3.00
2023-03-08T08:27:01.613Z,3.00
2023-03-08T08:29:29.872Z,3.00
2023-03-08T08:31:57.983Z,3.10
2023-03-08T08:34:26.499Z,2.90
2023-03-08T08:36:54.460Z,3.00
2023-03-08T08:39:22.411Z,3.00
2023-03-08T08:41:51.928Z,3.00
2023-03-08T08:44:19.876Z,3.10
2023-03-08T08:46:47.863Z,3.10
2023-03-08T08:49:15.798Z,3.10
2023-03-08T08:51:43.748Z,3.20
2023-03-08T08:54:11.689Z,3.30
2023-03-08T08:56:42.977Z,3.30
2023-03-08T08:59:13.355Z,3.40
2023-03-08T09:01:43.921Z,3.40
2023-03-08T09:04:13.307Z,3.40
2023-03-08T09:06:41.822Z,3.40
2023-03-08T09:09:10.002Z,3.40
2023-03-08T09:11:53.419Z,3.40
2023-03-08T09:14:24.204Z,3.50
2023-03-08T09:16:53.182Z,3.50
2023-03-08T09:19:21.400Z,3.50
2023-03-08T09:21:49.399Z,3.60
2023-03-08T09:24:17.709Z,3.70
2023-03-08T09:26:45.765Z,3.70
2023-03-08T09:29:13.704Z,3.80
2023-03-08T09:31:45.355Z,3.70
2023-03-08T09:34:14.879Z,3.60
2023-03-08T09:36:43.282Z,3.60
2023-03-08T09:39:13.529Z,3.60
2023-03-08T09:41:51.636Z,3.60
2023-03-08T09:44:43.733Z,3.70
2023-03-08T09:47:20.308Z,3.70
2023-03-08T09:49:53.131Z,3.70
2023-03-08T09:52:26.577Z,3.70
2023-03-08T09:54:54.853Z,3.70
2023-03-08T09:57:26.286Z,3.70
2023-03-08T09:59:57.176Z,3.90
2023-03-08T10:02:35.570Z,3.90
2023-03-08T10:05:13.741Z,4.00
2023-03-08T10:07:52.362Z,4.10
2023-03-08T10:10:33.915Z,4.20
2023-03-08T10:13:17.495Z,4.30
2023-03-08T10:15:50.208Z,4.40
2023-03-08T10:18:29.318Z,4.40
2023-03-08T10:20:59.285Z,4.50
2023-03-08T10:23:32.519Z,4.50
2023-03-08T10:26:02.074Z,4.50
2023-03-08T10:28:30.171Z,4.60
2023-03-08T10:31:00.355Z,4.60
2023-03-08T10:33:35.188Z,4.60
2023-03-08T10:36:06.572Z,4.60
2023-03-08T10:38:36.365Z,4.60
2023-03-08T10:41:08.077Z,4.60
2023-03-08T10:43:41.555Z,4.70
2023-03-08T10:46:14.865Z,4.70
2023-03-08T10:48:44.848Z,4.80
2023-03-08T10:51:18.862Z,4.80
2023-03-08T10:53:55.219Z,4.90
2023-03-08T10:56:27.572Z,5.00
2023-03-08T10:58:57.189Z,5.10
2023-03-08T11:01:27.938Z,5.00
2023-03-08T11:04:06.037Z,5.10
2023-03-08T11:06:36.295Z,5.20
2023-03-08T11:09:06.248Z,5.30
2023-03-08T11:11:42.852Z,5.30
2023-03-08T11:14:12.188Z,5.20
2023-03-08T11:16:49.446Z,5.40
2023-03-08T11:19:32.364Z,5.60
2023-03-08T11:22:11.361Z,5.60
2023-03-08T11:24:53.703Z,5.50
2023-03-08T11:27:35.139Z,5.70
2023-03-08T11:30:18.221Z,5.70
2023-03-08T11:33:02.924Z,5.80
2023-03-08T11:35:37.662Z,5.70
2023-03-08T11:38:10.731Z,5.70
2023-03-08T11:40:52.668Z,5.50
2023-03-08T11:43:41.928Z,5.50
2023-03-08T11:46:16.946Z,5.40
2023-03-08T11:49:06.300Z,5.40
2023-03-08T11:51:44.326Z,5.60
2023-03-08T11:54:19.344Z,5.50
2023-03-08T11:56:50.888Z,5.60
2023-03-08T11:59:26.036Z,5.80
2023-03-08T12:01:59.842Z,5.80
2023-03-08T12:04:36.755Z,5.90
2023-03-08T12:07:10.839Z,6.00
2023-03-08T12:09:45.930Z,6.00
2023-03-08T12:12:19.934Z,5.90
2023-03-08T12:14:53.527Z,6.00
2023-03-08T12:17:25.744Z,5.90
2023-03-08T12:19:53.991Z,5.90
2023-03-08T12:22:40.794Z,5.90
2023-03-08T12:25:17.415Z,6.00
2023-03-08T12:27:50.456Z,6.00
2023-03-08T12:30:25.326Z,6.10
2023-03-08T12:32:56.442Z,6.20
2023-03-08T12:35:33.558Z,6.10
2023-03-08T12:38:05.070Z,6.10
2023-03-08T12:40:39.617Z,6.00
2023-03-08T12:43:13.357Z,6.00
2023-03-08T12:45:43.912Z,6.10
2023-03-08T12:48:31.874Z,6.00
2023-03-08T12:51:04.299Z,6.00
2023-03-08T12:53:38.730Z,6.10
2023-03-08T12:56:17.853Z,6.20
2023-03-08T12:58:52.091Z,6.20
2023-03-08T13:01:35.566Z,6.10
2023-03-08T13:04:05.324Z,6.20
2023-03-08T13:07:10.142Z,6.00
2023-03-08T13:09:50.838Z,6.00
2023-03-08T13:12:28.209Z,6.00
2023-03-08T13:15:19.434Z,5.90
2023-03-08T13:17:52.227Z,6.00
2023-03-08T13:20:24.205Z,6.20
2023-03-08T13:23:02.978Z,6.00
2023-03-08T13:25:50.642Z,6.00
2023-03-08T13:28:20.965Z,5.90
2023-03-08T13:30:52.709Z,5.90
2023-03-08T13:33:24.232Z,5.80
2023-03-08T13:36:03.369Z,5.80
2023-03-08T13:38:33.955Z,5.80
2023-03-08T13:41:03.858Z,5.80
2023-03-08T13:43:33.668Z,5.80
2023-03-08T13:46:05.696Z,5.70
2023-03-08T13:48:36.138Z,5.70
2023-03-08T13:51:04.821Z,5.70
2023-03-08T13:53:35.755Z,5.70
2023-03-08T13:56:07.150Z,5.70
2023-03-08T13:58:38.296Z,5.70
2023-03-08T14:01:12.871Z,5.60
2023-03-08T14:03:42.443Z,5.70
2023-03-08T14:06:19.829Z,5.70
2023-03-08T14:08:48.378Z,5.80
2023-03-08T14:11:20.894Z,5.70
2023-03-08T14:13:51.602Z,5.70
2023-03-08T14:16:30.171Z,5.70
2023-03-08T14:18:59.464Z,5.70
2023-03-08T14:21:29.065Z,5.70
2023-03-08T14:23:58.576Z,5.70
2023-03-08T14:26:31.275Z,5.50
2023-03-08T14:29:19.434Z,5.50
2023-03-08T14:31:56.402Z,5.60
2023-03-08T14:34:26.761Z,5.50
2023-03-08T14:36:58.011Z,5.40
2023-03-08T14:39:28.031Z,5.50
2023-03-08T14:41:58.001Z,5.50
2023-03-08T14:44:28.977Z,5.50
2023-03-08T14:46:59.654Z,5.40
2023-03-08T14:49:29.327Z,5.20
2023-03-08T14:51:57.532Z,5.20
2023-03-08T14:54:36.818Z,5.20
2023-03-08T14:57:18.899Z,5.20
2023-03-08T14:59:47.414Z,5.20
2023-03-08T15:02:17.596Z,5.20
2023-03-08T15:04:47.314Z,5.20
2023-03-08T15:07:20.065Z,5.20
2023-03-08T15:09:48.894Z,5.30
2023-03-08T15:12:18.875Z,5.40
2023-03-08T15:14:46.955Z,5.40
2023-03-08T15:17:14.941Z,5.40
2023-03-08T15:19:43.081Z,5.40
2023-03-08T15:22:14.594Z,5.40
2023-03-08T15:24:42.662Z,5.30
2023-03-08T15:27:15.991Z,5.30
2023-03-08T15:29:45.320Z,5.30
2023-03-08T15:32:13.331Z,5.30
2023-03-08T15:34:41.832Z,5.40
2023-03-08T15:37:14.342Z,5.30
2023-03-08T15:39:42.351Z,5.20
2023-03-08T15:42:10.434Z,5.20
2023-03-08T15:44:38.358Z,5.10
2023-03-08T15:47:09.816Z,5.10
2023-03-08T15:49:37.750Z,5.10
2023-03-08T15:52:07.682Z,5.10
2023-03-08T15:54:36.624Z,5.10
2023-03-08T15:57:04.998Z,5.00
2023-03-08T15:59:32.957Z,5.00
2023-03-08T16:02:00.997Z,5.00
2023-03-08T16:04:30.517Z,5.00
2023-03-08T16:06:58.571Z,5.00
2023-03-08T16:09:26.629Z,5.00
2023-03-08T16:11:54.679Z,5.00
2023-03-08T16:14:22.683Z,5.00
2023-03-08T16:16:50.690Z,5.00
2023-03-08T16:19:18.791Z,5.00
2023-03-08T16:21:48.137Z,4.90
2023-03-08T16:24:17.660Z,4.90
2023-03-08T16:26:45.631Z,4.90
2023-03-08T16:29:15.063Z,4.90
2023-03-08T16:31:43.601Z,5.00
2023-03-08T16:34:13.051Z,4.90
2023-03-08T16:36:41.028Z,4.90
2023-03-08T16:39:10.676Z,4.90
2023-03-08T16:41:39.687Z,4.80
2023-03-08T16:44:09.087Z,4.80
2023-03-08T16:46:37.033Z,4.80
2023-03-08T16:49:04.980Z,4.70
2023-03-08T16:51:32.979Z,4.60
2023-03-08T16:54:00.925Z,4.50
2023-03-08T16:56:30.914Z,4.50
2023-03-08T16:59:00.777Z,4.50
2023-03-08T17:01:29.530Z,4.50
2023-03-08T17:03:58.212Z,4.50
2023-03-08T17:06:28.067Z,4.40
2023-03-08T17:08:56.339Z,4.40
2023-03-08T17:11:26.084Z,4.40
2023-03-08T17:13:57.174Z,4.50
2023-03-08T17:16:26.907Z,4.40
2023-03-08T17:18:55.272Z,4.40
2023-03-08T17:21:23.940Z,4.40
2023-03-08T17:23:52.954Z,4.40
2023-03-08T17:26:23.370Z,4.40
2023-03-08T17:28:52.019Z,4.40
2023-03-08T17:31:22.858Z,4.40
2023-03-08T17:33:52.214Z,4.30
2023-03-08T17:36:20.857Z,4.30
2023-03-08T17:38:48.905Z,4.30
2023-03-08T17:41:17.467Z,4.20
2023-03-08T17:43:45.595Z,4.20
2023-03-08T17:46:15.462Z,4.20
2023-03-08T17:48:44.969Z,4.20
2023-03-08T17:51:14.672Z,4.20
2023-03-08T17:53:42.924Z,4.30
2023-03-08T17:56:13.188Z,4.20
2023-03-08T17:58:41.872Z,4.10
2023-03-08T18:01:11.677Z,4.20
2023-03-08T18:03:40.215Z,4.20
2023-03-08T18:06:15.748Z,4.20
2023-03-08T18:08:43.722Z,4.20
2023-03-08T18:11:11.667Z,4.20
2023-03-08T18:13:40.769Z,4.20
2023-03-08T18:16:09.679Z,4.20
2023-03-08T18:18:37.655Z,4.20
2023-03-08T18:21:13.498Z,4.20
2023-03-08T18:23:43.696Z,4.10
2023-03-08T18:26:12.343Z,4.20
2023-03-08T18:28:40.632Z,4.20
2023-03-08T18:31:09.516Z,4.20
2023-03-08T18:33:37.629Z,4.20
2023-03-08T18:36:06.095Z,4.20
2023-03-08T18:38:34.285Z,4.10
2023-03-08T18:41:12.297Z,4.10
2023-03-08T18:43:40.975Z,4.10
2023-03-08T18:46:10.363Z,4.10
2023-03-08T18:48:38.503Z,4.10
2023-03-08T18:51:06.860Z,4.10
2023-03-08T18:53:34.890Z,4.10
2023-03-08T18:56:05.331Z,4.10
2023-03-08T18:58:34.074Z,4.00
2023-03-08T19:01:03.074Z,4.00
2023-03-08T19:03:31.627Z,4.00
2023-03-08T19:06:03.206Z,4.00
2023-03-08T19:08:31.248Z,4.00
2023-03-08T19:10:59.886Z,4.00
2023-03-08T19:13:29.194Z,4.00
2023-03-08T19:15:57.154Z,4.00
2023-03-08T19:18:25.127Z,4.00
2023-03-08T19:20:53.078Z,4.00
2023-03-08T19:23:21.135Z,4.00
2023-03-08T19:26:06.572Z,4.10
2023-03-08T19:28:35.884Z,4.10
2023-03-08T19:31:04.380Z,4.10
2023-03-08T19:33:32.555Z,4.10
2023-03-08T19:36:00.561Z,4.10
2023-03-08T19:38:28.588Z,4.10
2023-03-08T19:40:56.535Z,4.10
2023-03-08T19:43:24.556Z,4.10
2023-03-08T19:45:53.894Z,4.00
2023-03-08T19:48:22.073Z,4.00
2023-03-08T19:50:50.031Z,3.90
2023-03-08T19:53:17.999Z,3.90
2023-03-08T19:55:52.918Z,4.00
2023-03-08T19:58:21.746Z,4.00
2023-03-08T20:00:49.807Z,4.10
2023-03-08T20:03:19.877Z,4.00
2023-03-08T20:05:48.804Z,4.00
2023-03-08T20:08:16.791Z,4.00
2023-03-08T20:10:44.746Z,3.80
2023-03-08T20:13:13.168Z,3.80
2023-03-08T20:15:41.136Z,3.80
2023-03-08T20:18:09.099Z,3.80
2023-03-08T20:20:38.472Z,3.80
2023-03-08T20:23:06.423Z,3.90
2023-03-08T20:25:35.516Z,3.90
2023-03-08T20:28:03.557Z,3.80
2023-03-08T20:30:31.555Z,3.80
2023-03-08T20:32:59.509Z,3.90
2023-03-08T20:35:27.524Z,3.90
2023-03-08T20:37:57.262Z,3.80
2023-03-08T20:40:25.250Z,3.80
2023-03-08T20:42:57.616Z,3.90
2023-03-08T20:45:26.407Z,3.90
2023-03-08T20:47:57.329Z,3.90
2023-03-08T20:50:26.845Z,3.90
2023-03-08T20:52:56.281Z,3.90
2023-03-08T20:55:24.244Z,3.90
2023-03-08T20:57:52.986Z,3.90
2023-03-08T21:00:25.229Z,3.90
2023-03-08T21:02:55.642Z,3.90
2023-03-08T21:05:23.668Z,4.00
2023-03-08T21:07:51.627Z,4.00
2023-03-08T21:10:21.128Z,4.00
2023-03-08T21:12:49.097Z,4.00
2023-03-08T21:15:17.201Z,4.00
2023-03-08T21:17:45.170Z,4.00
2023-03-08T21:20:13.852Z,4.00
2023-03-08T21:22:41.816Z,4.00
2023-03-08T21:25:10.817Z,3.90
2023-03-08T21:27:40.150Z,3.90
2023-03-08T21:30:09.511Z,3.90
2023-03-08T21:32:38.282Z,3.90
2023-03-08T21:35:06.892Z,3.90
2023-03-08T21:37:35.753Z,3.90
2023-03-08T21:40:05.995Z,4.00
2023-03-08T21:42:34.006Z,4.00
2023-03-08T21:45:03.357Z,4.00
2023-03-08T21:47:31.315Z,4.00
2023-03-08T21:49:59.383Z,4.00
2023-03-08T21:52:27.352Z,3.90
2023-03-08T21:54:55.316Z,3.90
2023-03-08T21:57:23.266Z,3.90
2023-03-08T21:59:51.332Z,3.90
2023-03-08T22:02:20.653Z,3.90
2023-03-08T22:04:48.663Z,3.90
2023-03-08T22:07:16.672Z,3.90
2023-03-08T22:09:44.666Z,3.90
2023-03-08T22:12:12.640Z,3.90
2023-03-08T22:14:40.665Z,3.90
2023-03-08T22:17:08.593Z,3.90
2023-03-08T22:19:37.925Z,3.90
2023-03-08T22:22:06.162Z,3.90
2023-03-08T22:24:34.111Z,3.90
2023-03-08T22:27:04.542Z,3.80
2023-03-08T22:29:33.771Z,3.90
2023-03-08T22:32:01.838Z,3.90
2023-03-08T22:34:29.812Z,3.80
2023-03-08T22:37:00.394Z,3.80
2023-03-08T22:39:28.978Z,3.80
2023-03-08T22:41:56.908Z,3.80
2023-03-08T22:44:24.842Z,3.80
2023-03-08T22:46:52.822Z,3.80
2023-03-08T22:49:20.782Z,3.80
2023-03-08T22:51:48.817Z,3.80
2023-03-08T22:54:19.479Z,3.80
2023-03-08T22:56:49.890Z,3.80
2023-03-08T22:59:18.114Z,3.80
2023-03-08T23:01:46.081Z,3.90
2023-03-08T23:04:14.575Z,3.90
2023-03-08T23:06:42.569Z,3.90
2023-03-08T23:09:12.680Z,4.00
2023-03-08T23:11:42.873Z,4.00
2023-03-08T23:14:11.952Z,4.00
2023-03-08T23:16:42.464Z,4.00
2023-03-08T23:19:13.314Z,4.00
2023-03-08T23:21:41.618Z,3.90
2023-03-08T23:24:09.715Z,3.90
2023-03-08T23:26:38.288Z,4.00
2023-03-08T23:29:07.830Z,4.00
2023-03-08T23:31:37.548Z,4.00
2023-03-08T23:34:06.545Z,4.00
2023-03-08T23:36:35.142Z,4.00
2023-03-08T23:39:03.906Z,4.10
2023-03-08T23:41:32.269Z,4.10
2023-03-08T23:44:01.812Z,4.10
2023-03-08T23:46:32.189Z,4.00
2023-03-08T23:49:01.645Z,4.00
2023-03-08T23:51:31.804Z,4.00
2023-03-08T23:54:00.886Z,4.00
2023-03-08T23:56:31.094Z,4.00
2023-03-08T23:59:01.388Z,4.10
